sensor_id;sensor_type;location;lat;lon;timestamp;P1;durP1;ratioP1;P2;durP2;ratioP2
50976;SDS011;36992;48.200;12.418;2023-01-01T00:00:28;50.92;;;32.45;;
50976;SDS011;36992;48.200;12.418;2023-01-01T00:02:56;51.90;;;33.42;;
50976;SDS011;36992;48.200;12.418;2023-01-01T00:05:23;40.45;;;27.20;;
50976;SDS011;36992;48.200;12.418;2023-01-01T00:07:49;46.53;;;31.35;;
50976;SDS011;36992;48.200;12.418;2023-01-01T00:10:16;42.67;;;27.48;;
50976;SDS011;36992;48.200;12.418;2023-01-01T00:12:55;35.25;;;20.02;;
50976;SDS011;36992;48.200;12.418;2023-01-01T00:15:22;32.90;;;21.27;;
50976;SDS011;36992;48.200;12.418;2023-01-01T00:17:49;31.75;;;20.50;;
50976;SDS011;36992;48.200;12.418;2023-01-01T00:20:17;22.80;;;14.43;;
50976;SDS011;36992;48.200;12.418;2023-01-01T00:22:44;28.60;;;19.95;;
50976;SDS011;36992;48.200;12.418;2023-01-01T00:25:11;27.90;;;18.73;;
50976;SDS011;36992;48.200;12.418;2023-01-01T00:27:39;29.63;;;19.83;;
50976;SDS011;36992;48.200;12.418;2023-01-01T00:30:06;33.67;;;23.42;;
50976;SDS011;36992;48.200;12.418;2023-01-01T00:32:33;35.80;;;23.05;;
50976;SDS011;36992;48.200;12.418;2023-01-01T00:35:00;34.22;;;22.15;;
50976;SDS011;36992;48.200;12.418;2023-01-01T00:37:28;35.25;;;23.75;;
50976;SDS011;36992;48.200;12.418;2023-01-01T00:39:54;25.65;;;17.02;;
50976;SDS011;36992;48.200;12.418;2023-01-01T00:42:21;27.35;;;18.73;;
50976;SDS011;36992;48.200;12.418;2023-01-01T00:44:47;39.05;;;24.15;;
50976;SDS011;36992;48.200;12.418;2023-01-01T00:47:14;44.00;;;29.42;;
50976;SDS011;36992;48.200;12.418;2023-01-01T00:49:40;40.90;;;27.23;;
50976;SDS011;36992;48.200;12.418;2023-01-01T00:52:07;48.22;;;32.28;;
50976;SDS011;36992;48.200;12.418;2023-01-01T00:54:35;52.35;;;32.88;;
50976;SDS011;36992;48.200;12.418;2023-01-01T00:57:01;54.42;;;33.33;;
50976;SDS011;36992;48.200;12.418;2023-01-01T00:59:28;58.95;;;37.08;;
50976;SDS011;36992;48.200;12.418;2023-01-01T01:01:54;51.90;;;33.30;;
50976;SDS011;36992;48.200;12.418;2023-01-01T01:04:21;46.72;;;31.52;;
50976;SDS011;36992;48.200;12.418;2023-01-01T01:06:48;46.20;;;30.77;;
50976;SDS011;36992;48.200;12.418;2023-01-01T01:09:14;41.63;;;28.98;;
50976;SDS011;36992;48.200;12.418;2023-01-01T01:11:42;43.83;;;28.33;;
50976;SDS011;36992;48.200;12.418;2023-01-01T01:14:08;43.53;;;29.45;;
50976;SDS011;36992;48.200;12.418;2023-01-01T01:16:35;42.55;;;27.25;;
50976;SDS011;36992;48.200;12.418;2023-01-01T01:19:02;41.90;;;27.05;;
50976;SDS011;36992;48.200;12.418;2023-01-01T01:21:32;42.72;;;28.50;;
50976;SDS011;36992;48.200;12.418;2023-01-01T01:24:00;42.85;;;28.50;;
50976;SDS011;36992;48.200;12.418;2023-01-01T01:26:28;38.53;;;25.45;;
50976;SDS011;36992;48.200;12.418;2023-01-01T01:28:57;36.92;;;24.98;;
50976;SDS011;36992;48.200;12.418;2023-01-01T01:31:26;34.55;;;23.40;;
50976;SDS011;36992;48.200;12.418;2023-01-01T01:33:54;35.08;;;24.38;;
50976;SDS011;36992;48.200;12.418;2023-01-01T01:36:21;37.72;;;25.20;;
50976;SDS011;36992;48.200;12.418;2023-01-01T01:38:48;34.15;;;22.48;;
50976;SDS011;36992;48.200;12.418;2023-01-01T01:41:15;36.58;;;23.77;;
50976;SDS011;36992;48.200;12.418;2023-01-01T01:43:48;36.42;;;21.67;;
50976;SDS011;36992;48.200;12.418;2023-01-01T01:46:20;40.38;;;26.90;;
50976;SDS011;36992;48.200;12.418;2023-01-01T01:48:49;33.03;;;22.80;;
50976;SDS011;36992;48.200;12.418;2023-01-01T01:51:17;32.80;;;22.02;;
50976;SDS011;36992;48.200;12.418;2023-01-01T01:53:48;35.00;;;22.10;;
50976;SDS011;36992;48.200;12.418;2023-01-01T01:56:18;36.72;;;24.70;;
50976;SDS011;36992;48.200;12.418;2023-01-01T01:58:47;40.05;;;25.58;;
50976;SDS011;36992;48.200;12.418;2023-01-01T02:01:13;36.30;;;24.13;;
50976;SDS011;36992;48.200;12.418;2023-01-01T02:03:42;45.20;;;26.60;;
50976;SDS011;36992;48.200;12.418;2023-01-01T02:08:43;36.13;;;22.35;;
50976;SDS011;36992;48.200;12.418;2023-01-01T02:11:10;36.00;;;24.00;;
50976;SDS011;36992;48.200;12.418;2023-01-01T02:13:37;39.88;;;24.27;;
50976;SDS011;36992;48.200;12.418;2023-01-01T02:16:05;33.60;;;21.80;;
50976;SDS011;36992;48.200;12.418;2023-01-01T02:18:37;36.20;;;23.35;;
50976;SDS011;36992;48.200;12.418;2023-01-01T02:21:12;38.43;;;22.57;;
50976;SDS011;36992;48.200;12.418;2023-01-01T02:26:48;32.65;;;19.30;;
50976;SDS011;36992;48.200;12.418;2023-01-01T02:29:24;32.60;;;18.58;;
50976;SDS011;36992;48.200;12.418;2023-01-01T02:31:57;20.70;;;14.02;;
50976;SDS011;36992;48.200;12.418;2023-01-01T02:34:28;22.02;;;13.63;;
50976;SDS011;36992;48.200;12.418;2023-01-01T02:36:59;27.02;;;16.73;;
50976;SDS011;36992;48.200;12.418;2023-01-01T02:39:30;25.00;;;16.60;;
50976;SDS011;36992;48.200;12.418;2023-01-01T02:41:59;24.20;;;14.93;;
50976;SDS011;36992;48.200;12.418;2023-01-01T02:44:31;24.02;;;14.73;;
50976;SDS011;36992;48.200;12.418;2023-01-01T02:47:05;26.95;;;15.65;;
50976;SDS011;36992;48.200;12.418;2023-01-01T02:49:33;25.58;;;16.35;;
50976;SDS011;36992;48.200;12.418;2023-01-01T02:52:04;25.75;;;17.85;;
50976;SDS011;36992;48.200;12.418;2023-01-01T02:54:36;29.58;;;17.02;;
50976;SDS011;36992;48.200;12.418;2023-01-01T02:57:14;20.17;;;12.77;;
50976;SDS011;36992;48.200;12.418;2023-01-01T02:59:56;26.17;;;16.58;;
50976;SDS011;36992;48.200;12.418;2023-01-01T03:03:00;24.92;;;14.90;;
50976;SDS011;36992;48.200;12.418;2023-01-01T03:05:39;22.95;;;13.50;;
50976;SDS011;36992;48.200;12.418;2023-01-01T03:08:22;20.42;;;13.15;;
50976;SDS011;36992;48.200;12.418;2023-01-01T03:10:56;21.25;;;13.45;;
50976;SDS011;36992;48.200;12.418;2023-01-01T03:13:29;20.63;;;12.05;;
50976;SDS011;36992;48.200;12.418;2023-01-01T03:16:03;22.92;;;14.70;;
50976;SDS011;36992;48.200;12.418;2023-01-01T03:18:38;20.50;;;12.32;;
50976;SDS011;36992;48.200;12.418;2023-01-01T03:21:08;19.10;;;11.57;;
50976;SDS011;36992;48.200;12.418;2023-01-01T03:23:39;22.85;;;13.05;;
50976;SDS011;36992;48.200;12.418;2023-01-01T03:26:11;16.90;;;10.43;;
50976;SDS011;36992;48.200;12.418;2023-01-01T03:28:41;19.98;;;12.13;;
50976;SDS011;36992;48.200;12.418;2023-01-01T03:31:13;19.40;;;11.63;;
50976;SDS011;36992;48.200;12.418;2023-01-01T03:33:44;20.30;;;12.88;;
50976;SDS011;36992;48.200;12.418;2023-01-01T03:36:14;22.17;;;13.38;;
50976;SDS011;36992;48.200;12.418;2023-01-01T03:38:45;21.08;;;14.02;;
50976;SDS011;36992;48.200;12.418;2023-01-01T03:41:16;24.40;;;15.05;;
50976;SDS011;36992;48.200;12.418;2023-01-01T03:43:51;22.67;;;15.82;;
50976;SDS011;36992;48.200;12.418;2023-01-01T03:46:23;24.38;;;15.98;;
50976;SDS011;36992;48.200;12.418;2023-01-01T03:48:53;25.70;;;16.23;;
50976;SDS011;36992;48.200;12.418;2023-01-01T03:51:24;24.35;;;14.88;;
50976;SDS011;36992;48.200;12.418;2023-01-01T03:53:58;27.17;;;16.25;;
50976;SDS011;36992;48.200;12.418;2023-01-01T03:56:29;25.27;;;15.02;;
50976;SDS011;36992;48.200;12.418;2023-01-01T03:59:05;23.07;;;15.20;;
50976;SDS011;36992;48.200;12.418;2023-01-01T04:01:38;23.17;;;14.27;;
50976;SDS011;36992;48.200;12.418;2023-01-01T04:04:08;22.88;;;12.60;;
50976;SDS011;36992;48.200;12.418;2023-01-01T04:06:37;23.27;;;13.93;;
50976;SDS011;36992;48.200;12.418;2023-01-01T04:09:03;21.85;;;12.18;;
50976;SDS011;36992;48.200;12.418;2023-01-01T04:11:36;23.42;;;13.60;;
50976;SDS011;36992;48.200;12.418;2023-01-01T04:14:26;19.85;;;13.35;;
50976;SDS011;36992;48.200;12.418;2023-01-01T04:16:55;20.10;;;12.77;;
50976;SDS011;36992;48.200;12.418;2023-01-01T04:19:22;21.42;;;13.35;;
50976;SDS011;36992;48.200;12.418;2023-01-01T04:21:48;23.40;;;13.30;;
50976;SDS011;36992;48.200;12.418;2023-01-01T04:24:15;18.65;;;12.50;;
50976;SDS011;36992;48.200;12.418;2023-01-01T04:26:41;22.05;;;12.73;;
50976;SDS011;36992;48.200;12.418;2023-01-01T04:29:08;18.88;;;11.50;;
50976;SDS011;36992;48.200;12.418;2023-01-01T04:31:34;20.35;;;11.77;;
50976;SDS011;36992;48.200;12.418;2023-01-01T04:34:02;20.10;;;12.05;;
50976;SDS011;36992;48.200;12.418;2023-01-01T04:36:29;20.38;;;13.32;;
50976;SDS011;36992;48.200;12.418;2023-01-01T04:38:55;19.23;;;12.20;;
50976;SDS011;36992;48.200;12.418;2023-01-01T04:41:22;22.45;;;12.90;;
50976;SDS011;36992;48.200;12.418;2023-01-01T04:43:49;18.10;;;11.63;;
50976;SDS011;36992;48.200;12.418;2023-01-01T04:46:15;19.63;;;10.82;;
50976;SDS011;36992;48.200;12.418;2023-01-01T04:48:43;19.60;;;12.30;;
50976;SDS011;36992;48.200;12.418;2023-01-01T04:51:12;16.38;;;10.80;;
50976;SDS011;36992;48.200;12.418;2023-01-01T04:53:40;17.50;;;11.18;;
50976;SDS011;36992;48.200;12.418;2023-01-01T04:56:07;17.52;;;10.45;;
50976;SDS011;36992;48.200;12.418;2023-01-01T04:58:36;17.10;;;10.82;;
50976;SDS011;36992;48.200;12.418;2023-01-01T05:01:04;17.58;;;11.88;;
50976;SDS011;36992;48.200;12.418;2023-01-01T05:03:32;16.98;;;10.23;;
50976;SDS011;36992;48.200;12.418;2023-01-01T05:05:59;16.67;;;10.27;;
50976;SDS011;36992;48.200;12.418;2023-01-01T05:08:28;18.65;;;11.13;;
50976;SDS011;36992;48.200;12.418;2023-01-01T05:10:58;16.63;;;10.30;;
50976;SDS011;36992;48.200;12.418;2023-01-01T05:13:26;19.17;;;11.23;;
50976;SDS011;36992;48.200;12.418;2023-01-01T05:15:52;16.60;;;10.80;;
50976;SDS011;36992;48.200;12.418;2023-01-01T05:18:19;19.70;;;10.70;;
50976;SDS011;36992;48.200;12.418;2023-01-01T05:20:45;17.13;;;10.30;;
50976;SDS011;36992;48.200;12.418;2023-01-01T05:23:13;15.93;;;9.68;;
50976;SDS011;36992;48.200;12.418;2023-01-01T05:25:42;15.82;;;10.82;;
50976;SDS011;36992;48.200;12.418;2023-01-01T05:28:08;16.60;;;9.63;;
50976;SDS011;36992;48.200;12.418;2023-01-01T05:30:37;16.38;;;9.95;;
50976;SDS011;36992;48.200;12.418;2023-01-01T05:33:04;15.45;;;10.05;;
50976;SDS011;36992;48.200;12.418;2023-01-01T05:35:31;16.38;;;9.68;;
50976;SDS011;36992;48.200;12.418;2023-01-01T05:37:57;15.13;;;9.40;;
50976;SDS011;36992;48.200;12.418;2023-01-01T05:40:24;17.45;;;9.88;;
50976;SDS011;36992;48.200;12.418;2023-01-01T05:42:52;14.68;;;9.50;;
50976;SDS011;36992;48.200;12.418;2023-01-01T05:45:18;13.57;;;9.25;;
50976;SDS011;36992;48.200;12.418;2023-01-01T05:47:45;15.07;;;9.10;;
50976;SDS011;36992;48.200;12.418;2023-01-01T05:50:11;11.93;;;7.50;;
50976;SDS011;36992;48.200;12.418;2023-01-01T05:52:38;14.82;;;8.82;;
50976;SDS011;36992;48.200;12.418;2023-01-01T05:55:05;17.00;;;9.32;;
50976;SDS011;36992;48.200;12.418;2023-01-01T05:57:32;12.50;;;8.10;;
50976;SDS011;36992;48.200;12.418;2023-01-01T06:00:00;15.30;;;8.65;;
50976;SDS011;36992;48.200;12.418;2023-01-01T06:02:28;14.45;;;8.23;;
50976;SDS011;36992;48.200;12.418;2023-01-01T06:04:55;13.73;;;8.50;;
50976;SDS011;36992;48.200;12.418;2023-01-01T06:07:22;13.00;;;8.60;;
50976;SDS011;36992;48.200;12.418;2023-01-01T06:09:48;12.82;;;7.28;;
50976;SDS011;36992;48.200;12.418;2023-01-01T06:12:15;12.80;;;8.05;;
50976;SDS011;36992;48.200;12.418;2023-01-01T06:14:41;14.20;;;8.90;;
50976;SDS011;36992;48.200;12.418;2023-01-01T06:17:09;13.10;;;8.15;;
50976;SDS011;36992;48.200;12.418;2023-01-01T06:19:36;13.88;;;7.85;;
50976;SDS011;36992;48.200;12.418;2023-01-01T06:22:02;17.58;;;8.27;;
50976;SDS011;36992;48.200;12.418;2023-01-01T06:24:29;13.95;;;8.23;;
50976;SDS011;36992;48.200;12.418;2023-01-01T06:26:56;14.07;;;8.02;;
50976;SDS011;36992;48.200;12.418;2023-01-01T06:29:22;13.18;;;8.52;;
50976;SDS011;36992;48.200;12.418;2023-01-01T06:31:49;13.23;;;7.78;;
50976;SDS011;36992;48.200;12.418;2023-01-01T06:34:17;13.10;;;7.30;;
50976;SDS011;36992;48.200;12.418;2023-01-01T06:36:44;14.65;;;8.65;;
50976;SDS011;36992;48.200;12.418;2023-01-01T06:39:10;13.98;;;7.97;;
50976;SDS011;36992;48.200;12.418;2023-01-01T06:41:37;12.35;;;7.40;;
50976;SDS011;36992;48.200;12.418;2023-01-01T06:44:03;11.90;;;7.93;;
50976;SDS011;36992;48.200;12.418;2023-01-01T06:46:31;12.23;;;6.90;;
50976;SDS011;36992;48.200;12.418;2023-01-01T06:48:59;12.90;;;7.95;;
50976;SDS011;36992;48.200;12.418;2023-01-01T06:51:28;12.73;;;7.65;;
50976;SDS011;36992;48.200;12.418;2023-01-01T06:53:56;12.73;;;7.22;;
50976;SDS011;36992;48.200;12.418;2023-01-01T06:56:24;12.27;;;6.80;;
50976;SDS011;36992;48.200;12.418;2023-01-01T06:58:51;12.95;;;7.70;;
50976;SDS011;36992;48.200;12.418;2023-01-01T07:01:18;15.40;;;8.57;;
50976;SDS011;36992;48.200;12.418;2023-01-01T07:03:50;11.20;;;7.15;;
50976;SDS011;36992;48.200;12.418;2023-01-01T07:06:18;16.38;;;7.43;;
50976;SDS011;36992;48.200;12.418;2023-01-01T07:08:47;14.20;;;7.75;;
50976;SDS011;36992;48.200;12.418;2023-01-01T07:11:13;13.88;;;8.25;;
50976;SDS011;36992;48.200;12.418;2023-01-01T07:13:40;15.95;;;8.63;;
50976;SDS011;36992;48.200;12.418;2023-01-01T07:16:07;14.20;;;8.50;;
50976;SDS011;36992;48.200;12.418;2023-01-01T07:18:33;12.55;;;8.32;;
50976;SDS011;36992;48.200;12.418;2023-01-01T07:21:00;15.38;;;8.30;;
50976;SDS011;36992;48.200;12.418;2023-01-01T07:23:29;12.93;;;7.93;;
50976;SDS011;36992;48.200;12.418;2023-01-01T07:25:59;13.63;;;8.55;;
50976;SDS011;36992;48.200;12.418;2023-01-01T07:28:26;13.80;;;7.82;;
50976;SDS011;36992;48.200;12.418;2023-01-01T07:30:52;13.32;;;7.82;;
50976;SDS011;36992;48.200;12.418;2023-01-01T07:33:20;14.75;;;8.27;;
50976;SDS011;36992;48.200;12.418;2023-01-01T07:35:47;12.80;;;8.45;;
50976;SDS011;36992;48.200;12.418;2023-01-01T07:38:14;12.63;;;7.38;;
50976;SDS011;36992;48.200;12.418;2023-01-01T07:40:41;12.23;;;8.07;;
50976;SDS011;36992;48.200;12.418;2023-01-01T07:43:09;13.10;;;6.88;;
50976;SDS011;36992;48.200;12.418;2023-01-01T07:45:38;12.25;;;7.40;;
50976;SDS011;36992;48.200;12.418;2023-01-01T07:48:05;12.32;;;8.15;;
50976;SDS011;36992;48.200;12.418;2023-01-01T07:50:34;13.07;;;7.80;;
50976;SDS011;36992;48.200;12.418;2023-01-01T07:53:02;12.15;;;7.38;;
50976;SDS011;36992;48.200;12.418;2023-01-01T07:55:29;13.93;;;9.05;;
50976;SDS011;36992;48.200;12.418;2023-01-01T07:57:55;11.73;;;6.68;;
50976;SDS011;36992;48.200;12.418;2023-01-01T08:00:23;12.85;;;7.32;;
50976;SDS011;36992;48.200;12.418;2023-01-01T08:02:50;11.70;;;7.55;;
50976;SDS011;36992;48.200;12.418;2023-01-01T08:05:17;11.93;;;7.30;;
50976;SDS011;36992;48.200;12.418;2023-01-01T08:07:44;11.88;;;7.13;;
50976;SDS011;36992;48.200;12.418;2023-01-01T08:10:12;11.52;;;7.43;;
50976;SDS011;36992;48.200;12.418;2023-01-01T08:12:39;11.88;;;7.35;;
50976;SDS011;36992;48.200;12.418;2023-01-01T08:15:06;11.45;;;7.25;;
50976;SDS011;36992;48.200;12.418;2023-01-01T08:17:35;11.23;;;6.15;;
50976;SDS011;36992;48.200;12.418;2023-01-01T08:20:02;13.25;;;7.15;;
50976;SDS011;36992;48.200;12.418;2023-01-01T08:22:29;11.25;;;7.43;;
50976;SDS011;36992;48.200;12.418;2023-01-01T08:24:56;12.20;;;7.57;;
50976;SDS011;36992;48.200;12.418;2023-01-01T08:27:22;10.52;;;6.90;;
50976;SDS011;36992;48.200;12.418;2023-01-01T08:29:49;12.68;;;6.85;;
50976;SDS011;36992;48.200;12.418;2023-01-01T08:32:16;11.95;;;7.68;;
50976;SDS011;36992;48.200;12.418;2023-01-01T08:34:43;13.10;;;8.02;;
50976;SDS011;36992;48.200;12.418;2023-01-01T08:37:10;13.15;;;8.10;;
50976;SDS011;36992;48.200;12.418;2023-01-01T08:39:38;13.65;;;7.55;;
50976;SDS011;36992;48.200;12.418;2023-01-01T08:42:05;12.15;;;8.50;;
50976;SDS011;36992;48.200;12.418;2023-01-01T08:44:32;13.40;;;7.95;;
50976;SDS011;36992;48.200;12.418;2023-01-01T08:46:58;10.90;;;6.88;;
50976;SDS011;36992;48.200;12.418;2023-01-01T08:49:25;12.32;;;7.88;;
50976;SDS011;36992;48.200;12.418;2023-01-01T08:51:53;12.60;;;7.55;;
50976;SDS011;36992;48.200;12.418;2023-01-01T08:54:19;13.93;;;9.13;;
50976;SDS011;36992;48.200;12.418;2023-01-01T08:56:46;97.18;;;35.88;;
50976;SDS011;36992;48.200;12.418;2023-01-01T08:59:13;49.95;;;23.02;;
50976;SDS011;36992;48.200;12.418;2023-01-01T09:01:39;28.73;;;13.63;;
50976;SDS011;36992;48.200;12.418;2023-01-01T09:04:06;23.23;;;11.75;;
50976;SDS011;36992;48.200;12.418;2023-01-01T09:06:36;18.88;;;9.57;;
50976;SDS011;36992;48.200;12.418;2023-01-01T09:09:04;18.20;;;9.10;;
50976;SDS011;36992;48.200;12.418;2023-01-01T09:11:30;15.80;;;8.00;;
50976;SDS011;36992;48.200;12.418;2023-01-01T09:13:57;13.38;;;8.23;;
50976;SDS011;36992;48.200;12.418;2023-01-01T09:16:24;17.40;;;8.65;;
50976;SDS011;36992;48.200;12.418;2023-01-01T09:18:50;18.27;;;9.25;;
50976;SDS011;36992;48.200;12.418;2023-01-01T09:21:17;14.80;;;8.27;;
50976;SDS011;36992;48.200;12.418;2023-01-01T09:23:43;14.85;;;8.75;;
50976;SDS011;36992;48.200;12.418;2023-01-01T09:26:11;13.90;;;7.57;;
50976;SDS011;36992;48.200;12.418;2023-01-01T09:28:38;13.25;;;7.65;;
50976;SDS011;36992;48.200;12.418;2023-01-01T09:31:04;11.30;;;6.57;;
50976;SDS011;36992;48.200;12.418;2023-01-01T09:33:31;14.80;;;8.70;;
50976;SDS011;36992;48.200;12.418;2023-01-01T09:36:10;21.50;;;10.90;;
50976;SDS011;36992;48.200;12.418;2023-01-01T09:38:38;21.17;;;10.63;;
50976;SDS011;36992;48.200;12.418;2023-01-01T09:41:07;14.35;;;7.82;;
50976;SDS011;36992;48.200;12.418;2023-01-01T09:43:44;18.88;;;8.13;;
50976;SDS011;36992;48.200;12.418;2023-01-01T09:46:22;15.35;;;7.38;;
50976;SDS011;36992;48.200;12.418;2023-01-01T09:48:50;13.38;;;7.70;;
50976;SDS011;36992;48.200;12.418;2023-01-01T09:51:20;11.98;;;6.95;;
50976;SDS011;36992;48.200;12.418;2023-01-01T09:53:49;12.15;;;6.75;;
50976;SDS011;36992;48.200;12.418;2023-01-01T09:56:21;12.30;;;6.32;;
50976;SDS011;36992;48.200;12.418;2023-01-01T09:58:51;8.05;;;4.80;;
50976;SDS011;36992;48.200;12.418;2023-01-01T10:01:22;10.02;;;5.32;;
50976;SDS011;36992;48.200;12.418;2023-01-01T10:03:59;9.88;;;5.30;;
50976;SDS011;36992;48.200;12.418;2023-01-01T10:06:39;8.77;;;4.97;;
50976;SDS011;36992;48.200;12.418;2023-01-01T10:09:12;9.57;;;5.25;;
50976;SDS011;36992;48.200;12.418;2023-01-01T10:11:51;11.25;;;5.07;;
50976;SDS011;36992;48.200;12.418;2023-01-01T10:14:26;7.95;;;5.07;;
50976;SDS011;36992;48.200;12.418;2023-01-01T10:16:59;8.70;;;4.93;;
50976;SDS011;36992;48.200;12.418;2023-01-01T10:19:29;6.18;;;3.78;;
50976;SDS011;36992;48.200;12.418;2023-01-01T10:22:01;9.93;;;4.30;;
50976;SDS011;36992;48.200;12.418;2023-01-01T10:24:34;6.75;;;3.75;;
50976;SDS011;36992;48.200;12.418;2023-01-01T10:27:11;8.02;;;3.72;;
50976;SDS011;36992;48.200;12.418;2023-01-01T10:29:47;7.50;;;3.75;;
50976;SDS011;36992;48.200;12.418;2023-01-01T10:32:17;7.88;;;4.20;;
50976;SDS011;36992;48.200;12.418;2023-01-01T10:34:45;7.25;;;4.20;;
50976;SDS011;36992;48.200;12.418;2023-01-01T10:37:13;9.02;;;5.55;;
50976;SDS011;36992;48.200;12.418;2023-01-01T10:39:40;11.38;;;5.85;;
50976;SDS011;36992;48.200;12.418;2023-01-01T10:42:10;10.25;;;5.97;;
50976;SDS011;36992;48.200;12.418;2023-01-01T10:44:38;10.13;;;5.80;;
50976;SDS011;36992;48.200;12.418;2023-01-01T10:47:09;10.75;;;6.15;;
50976;SDS011;36992;48.200;12.418;2023-01-01T10:49:57;9.20;;;4.90;;
50976;SDS011;36992;48.200;12.418;2023-01-01T10:52:27;5.95;;;3.10;;
50976;SDS011;36992;48.200;12.418;2023-01-01T10:54:56;7.95;;;3.25;;
50976;SDS011;36992;48.200;12.418;2023-01-01T10:57:32;7.75;;;3.13;;
50976;SDS011;36992;48.200;12.418;2023-01-01T11:00:09;5.82;;;3.20;;
50976;SDS011;36992;48.200;12.418;2023-01-01T11:02:44;7.20;;;3.78;;
50976;SDS011;36992;48.200;12.418;2023-01-01T11:05:12;7.43;;;3.90;;
50976;SDS011;36992;48.200;12.418;2023-01-01T11:07:44;6.13;;;3.50;;
50976;SDS011;36992;48.200;12.418;2023-01-01T11:10:22;6.35;;;3.90;;
50976;SDS011;36992;48.200;12.418;2023-01-01T11:12:52;6.68;;;3.55;;
50976;SDS011;36992;48.200;12.418;2023-01-01T11:15:20;5.20;;;3.38;;
50976;SDS011;36992;48.200;12.418;2023-01-01T11:17:48;5.80;;;3.60;;
50976;SDS011;36992;48.200;12.418;2023-01-01T11:20:16;5.78;;;3.08;;
50976;SDS011;36992;48.200;12.418;2023-01-01T11:22:45;6.07;;;2.85;;
50976;SDS011;36992;48.200;12.418;2023-01-01T11:25:16;7.93;;;2.72;;
50976;SDS011;36992;48.200;12.418;2023-01-01T11:27:45;4.85;;;2.60;;
50976;SDS011;36992;48.200;12.418;2023-01-01T11:30:19;5.15;;;2.50;;
50976;SDS011;36992;48.200;12.418;2023-01-01T11:32:52;4.78;;;2.20;;
50976;SDS011;36992;48.200;12.418;2023-01-01T11:35:23;4.38;;;2.08;;
50976;SDS011;36992;48.200;12.418;2023-01-01T11:37:53;5.72;;;2.30;;
50976;SDS011;36992;48.200;12.418;2023-01-01T11:40:21;4.22;;;2.03;;
50976;SDS011;36992;48.200;12.418;2023-01-01T11:42:51;4.82;;;2.45;;
50976;SDS011;36992;48.200;12.418;2023-01-01T11:45:21;5.80;;;2.17;;
50976;SDS011;36992;48.200;12.418;2023-01-01T11:47:51;5.15;;;2.50;;
50976;SDS011;36992;48.200;12.418;2023-01-01T11:50:22;5.25;;;2.88;;
50976;SDS011;36992;48.200;12.418;2023-01-01T11:52:53;5.10;;;2.10;;
50976;SDS011;36992;48.200;12.418;2023-01-01T11:55:25;3.90;;;1.85;;
50976;SDS011;36992;48.200;12.418;2023-01-01T11:58:00;3.95;;;1.77;;
50976;SDS011;36992;48.200;12.418;2023-01-01T12:00:33;5.03;;;2.50;;
50976;SDS011;36992;48.200;12.418;2023-01-01T12:03:03;4.82;;;2.63;;
50976;SDS011;36992;48.200;12.418;2023-01-01T12:05:39;5.75;;;2.95;;
50976;SDS011;36992;48.200;12.418;2023-01-01T12:08:13;5.33;;;2.70;;
50976;SDS011;36992;48.200;12.418;2023-01-01T12:10:48;5.55;;;2.58;;
50976;SDS011;36992;48.200;12.418;2023-01-01T12:13:18;5.28;;;2.50;;
50976;SDS011;36992;48.200;12.418;2023-01-01T12:15:52;6.05;;;2.75;;
50976;SDS011;36992;48.200;12.418;2023-01-01T12:18:28;4.20;;;2.17;;
50976;SDS011;36992;48.200;12.418;2023-01-01T12:21:03;4.75;;;2.78;;
50976;SDS011;36992;48.200;12.418;2023-01-01T12:23:36;5.50;;;2.83;;
50976;SDS011;36992;48.200;12.418;2023-01-01T12:26:05;6.40;;;2.63;;
50976;SDS011;36992;48.200;12.418;2023-01-01T12:28:42;5.85;;;3.15;;
50976;SDS011;36992;48.200;12.418;2023-01-01T12:31:17;5.95;;;3.10;;
50976;SDS011;36992;48.200;12.418;2023-01-01T12:33:56;5.72;;;2.92;;
50976;SDS011;36992;48.200;12.418;2023-01-01T12:36:37;6.35;;;3.03;;
50976;SDS011;36992;48.200;12.418;2023-01-01T12:39:30;4.47;;;2.65;;
50976;SDS011;36992;48.200;12.418;2023-01-01T12:42:25;5.82;;;2.65;;
50976;SDS011;36992;48.200;12.418;2023-01-01T12:45:10;5.13;;;2.53;;
50976;SDS011;36992;48.200;12.418;2023-01-01T12:48:13;4.43;;;2.30;;
50976;SDS011;36992;48.200;12.418;2023-01-01T12:50:53;5.90;;;2.35;;
50976;SDS011;36992;48.200;12.418;2023-01-01T12:53:27;6.22;;;2.80;;
50976;SDS011;36992;48.200;12.418;2023-01-01T12:56:08;4.47;;;2.55;;
50976;SDS011;36992;48.200;12.418;2023-01-01T12:58:41;4.72;;;2.55;;
50976;SDS011;36992;48.200;12.418;2023-01-01T13:01:17;6.65;;;2.28;;
50976;SDS011;36992;48.200;12.418;2023-01-01T13:03:49;6.25;;;2.40;;
50976;SDS011;36992;48.200;12.418;2023-01-01T13:06:19;5.80;;;3.03;;
50976;SDS011;36992;48.200;12.418;2023-01-01T13:08:50;4.70;;;2.42;;
50976;SDS011;36992;48.200;12.418;2023-01-01T13:11:21;4.60;;;2.30;;
50976;SDS011;36992;48.200;12.418;2023-01-01T13:13:50;3.63;;;1.88;;
50976;SDS011;36992;48.200;12.418;2023-01-01T13:16:30;3.67;;;2.10;;
50976;SDS011;36992;48.200;12.418;2023-01-01T13:19:00;4.68;;;2.10;;
50976;SDS011;36992;48.200;12.418;2023-01-01T13:21:27;4.97;;;1.60;;
50976;SDS011;36992;48.200;12.418;2023-01-01T13:23:56;4.15;;;1.80;;
50976;SDS011;36992;48.200;12.418;2023-01-01T13:26:32;4.05;;;2.10;;
50976;SDS011;36992;48.200;12.418;2023-01-01T13:32:11;3.05;;;1.50;;
50976;SDS011;36992;48.200;12.418;2023-01-01T13:37:44;3.95;;;2.00;;
50976;SDS011;36992;48.200;12.418;2023-01-01T13:40:28;3.40;;;1.88;;
50976;SDS011;36992;48.200;12.418;2023-01-01T13:43:25;4.35;;;1.80;;
50976;SDS011;36992;48.200;12.418;2023-01-01T13:45:53;4.25;;;1.77;;
50976;SDS011;36992;48.200;12.418;2023-01-01T13:48:35;5.45;;;1.98;;
50976;SDS011;36992;48.200;12.418;2023-01-01T13:51:19;3.97;;;1.70;;
50976;SDS011;36992;48.200;12.418;2023-01-01T13:54:01;4.00;;;1.75;;
50976;SDS011;36992;48.200;12.418;2023-01-01T13:56:44;4.47;;;1.80;;
50976;SDS011;36992;48.200;12.418;2023-01-01T14:04:59;7.53;;;3.47;;
50976;SDS011;36992;48.200;12.418;2023-01-01T14:07:33;4.80;;;2.55;;
50976;SDS011;36992;48.200;12.418;2023-01-01T14:10:17;5.47;;;2.70;;
50976;SDS011;36992;48.200;12.418;2023-01-01T14:12:46;5.40;;;2.92;;
50976;SDS011;36992;48.200;12.418;2023-01-01T14:15:14;6.55;;;3.63;;
50976;SDS011;36992;48.200;12.418;2023-01-01T14:17:42;6.30;;;3.40;;
50976;SDS011;36992;48.200;12.418;2023-01-01T14:20:13;6.55;;;3.30;;
50976;SDS011;36992;48.200;12.418;2023-01-01T14:22:43;6.60;;;3.20;;
50976;SDS011;36992;48.200;12.418;2023-01-01T14:25:14;6.55;;;3.47;;
50976;SDS011;36992;48.200;12.418;2023-01-01T14:27:46;5.50;;;2.65;;
50976;SDS011;36992;48.200;12.418;2023-01-01T14:30:14;5.63;;;3.35;;
50976;SDS011;36992;48.200;12.418;2023-01-01T14:32:42;6.32;;;3.58;;
50976;SDS011;36992;48.200;12.418;2023-01-01T14:35:11;7.00;;;3.95;;
50976;SDS011;36992;48.200;12.418;2023-01-01T14:37:41;7.90;;;4.05;;
50976;SDS011;36992;48.200;12.418;2023-01-01T14:40:17;6.28;;;3.58;;
50976;SDS011;36992;48.200;12.418;2023-01-01T14:42:51;7.25;;;4.47;;
50976;SDS011;36992;48.200;12.418;2023-01-01T14:45:22;9.05;;;4.93;;
50976;SDS011;36992;48.200;12.418;2023-01-01T14:47:50;7.55;;;4.28;;
50976;SDS011;36992;48.200;12.418;2023-01-01T14:50:21;6.75;;;4.32;;
50976;SDS011;36992;48.200;12.418;2023-01-01T14:52:55;8.35;;;4.32;;
50976;SDS011;36992;48.200;12.418;2023-01-01T14:55:27;9.38;;;5.35;;